Time;durP1;ratioP1;P1;durP2;ratioP2;P2;SDS_P1;SDS_P2;PMS_P1;PMS_P2;Temp;Humidity;BMP_temperature;BMP_pressure;BME280_temperature;BME280_humidity;BME280_pressure;Samples;Min_cycle;Max_cycle;Signal;HPM_P1;HPM_P2
2022/10/12 00:01:20;;;;;;;14.90;13.40;;;4.80;99.90;;;;;;2614280;54;20769;-72
2022/10/12 00:07:07;;;;;;;19.97;13.90;;;4.70;99.90;;;;;;2612536;54;20394;-71
2022/10/12 00:12:55;;;;;;;17.90;13.90;;;4.70;99.90;;;;;;2613814;54;20126;-71
2022/10/12 00:18:42;;;;;;;16.20;13.40;;;4.60;99.90;;;;;;2613764;54;20154;-74
2022/10/12 00:24:30;;;;;;;24.00;13.97;;;4.60;99.90;;;;;;2613736;54;20874;-72
2022/10/12 00:30:18;;;;;;;22.10;14.57;;;4.60;99.90;;;;;;2612789;54;20162;-74
2022/10/12 00:36:16;;;;;;;20.50;14.00;;;4.60;99.90;;;;;;2614641;54;20123;-73
2022/10/12 00:39:25;;;;;;;19.97;13.73;;;4.60;99.90;;;;;;2614059;54;20495;-72
2022/10/12 00:41:51;;;;;;;22.00;16.50;;;4.60;99.90;;;;;;2612588;50;20399;-73
2022/10/12 00:54:00;;;;;;;14.73;12.73;;;4.50;99.90;;;;;;2614601;54;20379;-73
2022/10/12 01:06:04;;;;;;;14.57;12.80;;;4.40;99.90;;;;;;2615472;54;20386;-70
2022/10/12 01:11:52;;;;;;;16.07;13.70;;;4.40;99.90;;;;;;2614464;54;20417;-70
2022/10/12 01:17:47;;;;;;;20.20;12.20;;;4.40;99.90;;;;;;2615984;39;20559;-71
2022/10/12 01:28:08;;;;;;;16.17;12.30;;;4.20;99.90;;;;;;2613254;54;20958;-71
2022/10/12 01:34:02;;;;;;;16.00;12.70;;;4.20;99.90;;;;;;2614366;54;20378;-71
2022/10/12 01:50:05;;;;;;;14.17;12.40;;;4.00;99.90;;;;;;2613233;54;21039;-71
2022/10/12 02:05:50;;;;;;;15.70;13.20;;;4.00;99.90;;;;;;2614090;39;20762;-71
2022/10/12 02:11:40;;;;;;;17.23;13.63;;;3.90;99.90;;;;;;2611601;54;20401;-71
2022/10/12 02:17:29;;;;;;;20.93;12.87;;;3.90;99.90;;;;;;2613846;46;20909;-71
2022/10/12 02:23:17;;;;;;;18.87;12.40;;;3.80;99.90;;;;;;2613779;54;20463;-71
2022/10/12 02:29:09;;;;;;;22.50;13.60;;;3.80;99.90;;;;;;2616384;54;20386;-74
2022/10/12 02:32:12;;;;;;;15.10;12.90;;;3.90;99.90;;;;;;2617117;46;20519;-74
2022/10/12 02:44:35;;;;;;;17.07;12.67;;;4.10;99.90;;;;;;2616599;54;20391;-74
2022/10/12 02:50:25;;;;;;;16.37;13.47;;;4.10;99.90;;;;;;2615334;54;20391;-74
2022/10/12 02:56:14;;;;;;;19.20;13.50;;;4.00;99.90;;;;;;2616206;54;20500;-74
2022/10/12 03:02:02;;;;;;;16.73;12.57;;;3.90;99.90;;;;;;2615422;54;20418;-74
2022/10/12 03:07:49;;;;;;;16.17;13.70;;;3.70;99.90;;;;;;2614320;54;20270;-73
2022/10/12 03:13:37;;;;;;;16.60;12.77;;;3.60;99.90;;;;;;2615533;31;20658;-73
2022/10/12 03:19:25;;;;;;;16.93;13.10;;;3.60;99.90;;;;;;2614035;54;20153;-73
2022/10/12 03:25:13;;;;;;;19.60;13.77;;;3.70;99.90;;;;;;2613506;54;20169;-74
2022/10/12 03:31:00;;;;;;;17.13;14.00;;;3.70;99.90;;;;;;2612860;54;20390;-74
2022/10/12 03:36:48;;;;;;;15.53;13.87;;;3.50;99.90;;;;;;2614076;54;20125;-74
2022/10/12 03:46:29;;;;;;;14.70;13.13;;;3.40;99.90;;;;;;2612486;54;20405;-74
2022/10/12 03:52:16;;;;;;;21.10;15.87;;;3.30;99.90;;;;;;2612095;54;20399;-73
2022/10/12 03:58:03;;;;;;;18.50;15.80;;;3.30;99.90;;;;;;2613084;54;20176;-73
2022/10/12 04:03:51;;;;;;;20.97;15.33;;;3.20;99.90;;;;;;2612554;54;20134;-74
2022/10/12 04:09:38;;;;;;;21.37;14.70;;;3.30;99.90;;;;;;2612515;46;20242;-74
2022/10/12 04:15:25;;;;;;;18.40;13.30;;;3.20;99.90;;;;;;2613146;54;20130;-73
2022/10/12 04:21:14;;;;;;;16.83;14.80;;;3.20;99.90;;;;;;2612868;54;20122;-74
2022/10/12 04:27:03;;;;;;;17.30;15.60;;;3.40;99.90;;;;;;2614063;54;20391;-72
2022/10/12 04:32:51;;;;;;;22.80;15.60;;;3.50;99.90;;;;;;2615231;54;20430;-72
2022/10/12 04:38:38;;;;;;;15.53;13.90;;;3.90;99.90;;;;;;2614256;54;20386;-74
2022/10/12 04:44:26;;;;;;;25.23;14.80;;;3.90;99.90;;;;;;2615105;54;20178;-74
2022/10/12 04:53:50;;;;;;;17.53;14.33;;;4.10;99.90;;;;;;2613978;54;20391;-74
2022/10/12 04:59:38;;;;;;;20.63;15.00;;;4.20;99.90;;;;;;2613489;54;20386;-74
2022/10/12 05:05:25;;;;;;;20.57;14.47;;;4.30;99.90;;;;;;2612812;54;20254;-73
2022/10/12 05:11:12;;;;;;;18.77;14.77;;;4.20;99.90;;;;;;2612092;54;20130;-73
2022/10/12 05:16:59;;;;;;;19.03;15.70;;;4.40;99.90;;;;;;2612744;54;20202;-73
2022/10/12 05:22:46;;;;;;;19.70;14.47;;;4.40;99.90;;;;;;2612619;46;20187;-74
2022/10/12 05:28:33;;;;;;;20.73;13.23;;;4.20;99.90;;;;;;2615094;54;20142;-73
2022/10/12 05:34:21;;;;;;;17.73;14.10;;;4.10;99.90;;;;;;2612891;54;20661;-74
2022/10/12 05:40:09;;;;;;;21.07;13.60;;;4.10;99.90;;;;;;2613112;54;20119;-74
2022/10/12 05:43:14;;;;;;;16.57;14.80;;;4.00;99.90;;;;;;2614470;46;20428;-74
2022/10/12 05:45:41;;;;;;;22.37;14.67;;;3.90;99.90;;;;;;2612800;47;20952;-73
2022/10/12 05:51:31;;;;;;;14.57;13.17;;;3.80;99.90;;;;;;2614986;39;20683;-73
2022/10/12 05:57:19;;;;;;;14.77;12.80;;;3.90;99.90;;;;;;2614600;39;20723;-75
2022/10/12 06:03:06;;;;;;;16.70;14.80;;;3.70;99.90;;;;;;2613922;54;20134;-72
2022/10/12 06:08:54;;;;;;;15.20;13.60;;;3.80;99.90;;;;;;2613207;54;20922;-74
2022/10/12 06:14:42;;;;;;;18.27;13.50;;;3.60;99.90;;;;;;2611736;54;20603;-73
2022/10/12 06:20:30;;;;;;;22.90;14.80;;;3.60;99.90;;;;;;2611154;54;20150;-74
2022/10/12 06:26:18;;;;;;;19.17;13.90;;;3.70;99.90;;;;;;2612438;54;20153;-74
2022/10/12 06:32:06;;;;;;;15.47;13.80;;;3.80;99.90;;;;;;2612906;39;20615;-73
2022/10/12 06:37:53;;;;;;;19.90;15.80;;;3.80;99.90;;;;;;2614031;54;20162;-74
2022/10/12 06:47:47;;;;;;;18.43;15.17;;;4.20;99.90;;;;;;2612617;54;20403;-74
2022/10/12 06:53:35;;;;;;;29.03;15.77;;;4.70;99.90;;;;;;2613368;54;20422;-73
2022/10/12 06:59:23;;;;;;;25.77;15.50;;;6.50;99.90;;;;;;2611080;54;20383;-73
2022/10/12 07:05:11;;;;;;;16.00;12.60;;;8.90;99.90;;;;;;2613394;54;20430;-73
2022/10/12 07:11:04;;;;;;;16.10;12.07;;;9.40;99.90;;;;;;2613679;39;20787;-74
2022/10/12 07:16:52;;;;;;;18.70;13.80;;;8.80;99.90;;;;;;2612354;54;20993;-74
2022/10/12 07:22:39;;;;;;;14.93;11.47;;;8.40;99.90;;;;;;2613263;54;20259;-74
2022/10/12 07:28:27;;;;;;;35.00;14.57;;;9.40;99.90;;;;;;2609141;54;20158;-73
2022/10/12 07:30:53;;;;;;;18.83;12.30;;;9.90;99.90;;;;;;2626991;36;20459;-74
2022/10/12 07:33:18;;;;;;;13.00;11.60;;;10.20;99.90;;;;;;2610427;54;20785;-73
2022/10/12 07:39:06;;;;;;;14.00;12.60;;;11.30;99.90;;;;;;2614495;39;20548;-73
2022/10/12 07:48:16;;;;;;;14.07;12.57;;;13.40;99.90;;;;;;2610810;54;20435;-73
2022/10/12 07:54:04;;;;;;;14.87;13.47;;;13.90;86.50;;;;;;2613064;39;20553;-73
2022/10/12 07:59:52;;;;;;;14.20;13.17;;;14.70;78.80;;;;;;2613147;54;20286;-74
2022/10/12 08:05:40;;;;;;;15.87;14.60;;;15.00;59.60;;;;;;2614914;39;20548;-74
2022/10/12 08:11:28;;;;;;;16.40;15.00;;;16.20;45.30;;;;;;2613768;54;20154;-72
2022/10/12 08:17:15;;;;;;;15.23;13.87;;;16.50;39.30;;;;;;2612740;54;20399;-74
2022/10/12 08:20:19;;;;;;;16.20;15.20;;;15.60;42.50;;;;;;2612477;47;20438;-74
2022/10/12 08:22:44;;;;;;;15.57;14.30;;;16.20;40.10;;;;;;2613948;54;20651;-74
2022/10/12 08:28:32;;;;;;;15.70;14.33;;;16.50;37.00;;;;;;2611882;54;20141;-74
2022/10/12 08:34:20;;;;;;;14.63;13.70;;;15.90;41.30;;;;;;2615000;54;20686;-75
2022/10/12 08:40:13;;;;;;;16.10;14.80;;;15.30;45.30;;;;;;2612685;54;20127;-74
2022/10/12 08:46:03;;;;;;;14.93;13.83;;;15.60;42.80;;;;;;2614262;54;20438;-75
2022/10/12 08:51:52;;;;;;;15.10;14.10;;;15.30;43.00;;;;;;2614497;54;20504;-73
2022/10/12 08:57:40;;;;;;;15.13;13.80;;;15.80;41.00;;;;;;2613150;54;20431;-74
2022/10/12 09:20:42;;;;;;;15.70;14.57;;;16.00;41.00;;;;;;2610567;54;20395;-74
2022/10/12 09:26:36;;;;;;;14.17;13.20;;;16.60;30.80;;;;;;2613362;54;20435;-75
2022/10/12 09:38:46;;;;;;;14.90;13.30;;;17.30;23.50;;;;;;2613970;54;20410;-73
2022/10/12 09:48:15;;;;;;;13.47;12.73;;;18.00;23.30;;;;;;2613357;54;20395;-75
2022/10/12 09:54:04;;;;;;;13.90;12.80;;;17.00;24.40;;;;;;2614890;54;20418;-73
2022/10/12 09:59:52;;;;;;;14.57;12.30;;;17.50;22.60;;;;;;2614473;54;20391;-74
2022/10/12 10:05:40;;;;;;;13.80;12.77;;;17.50;23.00;;;;;;2612257;54;20722;-73
2022/10/12 10:11:31;;;;;;;13.70;12.90;;;18.00;21.90;;;;;;2613869;54;20138;-74
2022/10/12 10:17:24;;;;;;;13.80;12.60;;;17.80;23.80;;;;;;2614562;39;20790;-75
2022/10/12 10:29:51;;;;;;;13.90;12.90;;;17.60;23.50;;;;;;2612179;54;20896;-73
2022/10/12 10:35:38;;;;;;;13.60;12.57;;;18.20;20.10;;;;;;2613989;54;20452;-74
2022/10/12 10:51:18;;;;;;;15.00;13.67;;;18.40;24.40;;;;;;2614195;31;20884;-73
2022/10/12 10:57:12;;;;;;;13.60;12.20;;;18.40;21.60;;;;;;2614738;54;20384;-73
2022/10/12 11:50:37;;;;;;;13.73;13.03;;;20.50;17.50;;;;;;2613721;31;20823;-74
2022/10/12 12:09:54;;;;;;;13.83;12.83;;;18.70;20.30;;;;;;2611953;54;20538;-73
2022/10/12 12:22:15;;;;;;;13.97;13.27;;;18.00;19.80;;;;;;2612736;46;20411;-73
2022/10/12 12:41:16;;;;;;;13.80;12.90;;;18.80;18.80;;;;;;2612322;39;20829;-73
2022/10/12 12:50:38;;;;;;;14.37;13.10;;;18.80;18.30;;;;;;2612987;54;21024;-74
2022/10/12 13:19:56;;;;;;;14.33;13.10;;;18.30;21.10;;;;;;2613124;54;20395;-74
2022/10/12 13:23:17;;;;;;;13.60;12.60;;;19.00;20.70;;;;;;2612499;54;21007;-74
2022/10/12 13:35:22;;;;;;;15.40;14.50;;;18.80;21.40;;;;;;2613517;54;20418;-73
2022/10/12 13:41:17;;;;;;;15.30;14.30;;;18.10;24.30;;;;;;2612199;54;21020;-75
2022/10/12 13:50:55;;;;;;;15.23;13.93;;;18.70;23.50;;;;;;2612898;46;20402;-73
2022/10/12 13:56:42;;;;;;;13.87;12.87;;;18.90;23.60;;;;;;2612607;54;20411;-73
2022/10/12 14:02:31;;;;;;;15.10;13.90;;;18.70;24.00;;;;;;2611881;54;20411;-73
2022/10/12 14:11:41;;;;;;;15.33;14.00;;;19.90;19.10;;;;;;2612622;54;20671;-74
2022/10/12 14:17:28;;;;;;;12.77;11.83;;;18.80;22.20;;;;;;2611674;39;21146;-74
2022/10/12 14:20:31;;;;;;;15.07;13.97;;;18.20;25.30;;;;;;2611041;54;20412;-73
2022/10/12 14:22:59;;;;;;;13.70;12.80;;;18.50;24.30;;;;;;2612608;47;20166;-73
2022/10/12 14:28:47;;;;;;;14.80;13.73;;;18.00;25.40;;;;;;2613214;54;20415;-74
2022/10/12 14:34:35;;;;;;;15.63;14.43;;;17.20;28.60;;;;;;2613465;54;20211;-74
2022/10/12 14:40:36;;;;;;;15.57;14.40;;;18.00;27.50;;;;;;2611916;54;20194;-74
2022/10/12 14:50:38;;;;;;;16.13;15.13;;;17.60;27.90;;;;;;2611576;54;20399;-73
2022/10/12 14:56:27;;;;;;;16.53;14.40;;;18.20;27.90;;;;;;2613346;54;20398;-74
2022/10/12 15:02:19;;;;;;;15.00;13.77;;;18.80;27.40;;;;;;2614115;54;20403;-73
2022/10/12 15:08:07;;;;;;;14.63;13.47;;;18.90;26.00;;;;;;2612924;54;20411;-75
2022/10/12 15:13:55;;;;;;;15.47;14.33;;;18.10;26.50;;;;;;2610786;54;20443;-75
2022/10/12 15:19:44;;;;;;;16.27;14.90;;;17.60;30.20;;;;;;2614681;39;20193;-74
2022/10/12 15:31:47;;;;;;;15.13;14.23;;;18.00;26.90;;;;;;2614307;54;20431;-73
2022/10/12 15:37:34;;;;;;;14.87;13.87;;;18.30;29.70;;;;;;2611168;54;20127;-74
2022/10/12 15:43:22;;;;;;;14.50;13.50;;;17.50;30.10;;;;;;2613979;54;20141;-73
2022/10/12 15:49:28;;;;;;;12.50;11.40;;;16.60;37.50;;;;;;2613195;54;20157;-74
2022/10/12 15:55:19;;;;;;;15.50;14.20;;;15.70;48.00;;;;;;2612288;54;20170;-73
2022/10/12 16:01:13;;;;;;;15.87;14.40;;;15.40;56.80;;;;;;2613482;54;20475;-74
2022/10/12 16:07:01;;;;;;;20.00;13.27;;;15.30;59.60;;;;;;2613242;54;21296;-73
2022/10/12 16:12:51;;;;;;;14.13;13.03;;;14.90;86.90;;;;;;2613340;54;20130;-74
2022/10/12 16:18:39;;;;;;;16.67;12.93;;;14.60;99.60;;;;;;2614500;54;20442;-73
2022/10/12 16:24:26;;;;;;;21.83;13.67;;;14.20;99.90;;;;;;2611820;54;20158;-73
2022/10/12 16:30:14;;;;;;;18.13;14.10;;;14.20;99.90;;;;;;2611691;54;20394;-73
2022/10/12 16:42:36;;;;;;;15.80;14.27;;;13.60;99.90;;;;;;2610423;54;20383;-74
2022/10/12 16:48:23;;;;;;;15.57;14.07;;;13.60;99.90;;;;;;2610357;39;20590;-74
2022/10/12 16:54:10;;;;;;;14.27;12.80;;;13.60;99.90;;;;;;2607269;54;20173;-73
2022/10/12 16:59:57;;;;;;;12.27;11.17;;;13.20;99.90;;;;;;2608893;54;20407;-74
2022/10/12 17:05:45;;;;;;;14.57;13.10;;;12.90;99.90;;;;;;2608496;54;20251;-73
2022/10/12 17:11:37;;;;;;;21.07;12.53;;;13.00;99.90;;;;;;2607700;46;20153;-74
2022/10/12 17:17:24;;;;;;;13.20;11.80;;;12.70;99.90;;;;;;2613165;54;20956;-73
2022/10/12 17:23:12;;;;;;;14.73;10.37;;;12.50;99.90;;;;;;2612188;46;20150;-73
2022/10/12 17:29:02;;;;;;;15.17;10.67;;;12.30;99.90;;;;;;2612364;54;20169;-73
2022/10/12 17:34:50;;;;;;;13.30;9.63;;;12.00;99.90;;;;;;2610672;54;20450;-75
2022/10/12 17:40:38;;;;;;;10.20;9.13;;;12.00;99.90;;;;;;2611933;54;20181;-74
2022/10/12 17:50:38;;;;;;;16.60;11.27;;;11.80;99.90;;;;;;2609419;54;20406;-72
2022/10/12 17:56:26;;;;;;;18.13;10.00;;;11.60;99.90;;;;;;2611088;39;20893;-72
2022/10/12 18:02:14;;;;;;;10.07;8.10;;;11.60;99.90;;;;;;2610550;54;20149;-75
2022/10/12 18:08:01;;;;;;;13.77;10.30;;;11.50;99.90;;;;;;2610984;54;20166;-74
2022/10/12 18:13:52;;;;;;;17.97;12.03;;;11.40;99.90;;;;;;2609717;54;20569;-74
2022/10/12 18:19:40;;;;;;;22.30;11.30;;;11.40;99.90;;;;;;2612195;54;20375;-76
2022/10/12 18:25:29;;;;;;;15.43;12.40;;;11.40;99.90;;;;;;2610532;54;20410;-73
2022/10/12 18:31:19;;;;;;;14.33;12.57;;;11.30;99.90;;;;;;2611338;54;20413;-72
2022/10/12 18:37:07;;;;;;;19.10;14.30;;;11.00;99.90;;;;;;2612601;54;20447;-74
2022/10/12 18:42:55;;;;;;;17.40;11.73;;;10.80;99.90;;;;;;2612099;54;20134;-74
2022/10/12 18:46:08;;;;;;;13.67;12.07;;;10.70;99.90;;;;;;2611833;39;20800;-75
2022/10/12 18:48:34;;;;;;;14.53;10.60;;;10.50;99.90;;;;;;2610284;31;20612;-74
2022/10/12 18:54:22;;;;;;;12.17;10.40;;;10.40;99.90;;;;;;2609828;54;20407;-74
2022/10/12 19:00:10;;;;;;;17.50;11.77;;;10.10;99.90;;;;;;2611367;54;20243;-73
2022/10/12 19:06:10;;;;;;;16.47;11.27;;;10.00;99.90;;;;;;2611272;54;20407;-74
2022/10/12 19:11:58;;;;;;;24.77;12.50;;;9.80;99.90;;;;;;2608893;54;20419;-73
2022/10/12 19:17:45;;;;;;;29.53;18.53;;;9.90;99.90;;;;;;2610384;54;20150;-75
2022/10/12 19:23:34;;;;;;;23.60;15.53;;;9.70;99.90;;;;;;2610173;54;20158;-73
2022/10/12 19:29:21;;;;;;;23.17;15.63;;;9.90;99.90;;;;;;2611028;54;20433;-74
2022/10/12 19:35:09;;;;;;;17.47;15.00;;;9.50;99.90;;;;;;2611684;54;20134;-75
2022/10/12 19:40:57;;;;;;;17.73;12.97;;;9.50;99.90;;;;;;2612177;54;20134;-73
2022/10/12 19:50:38;;;;;;;24.73;16.20;;;9.30;99.90;;;;;;2610953;54;20379;-76
2022/10/12 19:53:41;;;;;;;25.37;17.10;;;9.30;99.90;;;;;;2609873;39;20882;-73
2022/10/12 19:56:12;;;;;;;17.23;14.40;;;9.30;99.90;;;;;;2609231;54;20417;-74
2022/10/12 20:08:46;;;;;;;21.60;15.03;;;9.20;99.90;;;;;;2613447;54;20415;-76
2022/10/12 20:14:34;;;;;;;25.20;16.90;;;9.20;99.90;;;;;;2611442;54;20720;-74
2022/10/12 20:20:21;;;;;;;29.13;19.47;;;9.20;99.90;;;;;;2613192;54;20134;-73
2022/10/12 20:32:53;;;;;;;28.27;20.63;;;8.90;99.90;;;;;;2612416;54;20398;-75
2022/10/12 20:38:42;;;;;;;22.50;18.13;;;8.70;99.90;;;;;;2609156;54;20223;-73
2022/10/12 20:44:29;;;;;;;38.00;19.27;;;8.80;99.90;;;;;;2608544;54;20948;-75
2022/10/12 20:50:16;;;;;;;25.40;18.23;;;8.70;99.90;;;;;;2607940;54;20175;-73
2022/10/12 20:56:05;;;;;;;23.13;18.10;;;8.60;99.90;;;;;;2608144;46;20295;-74
2022/10/12 21:01:51;;;;;;;20.63;17.07;;;8.40;99.90;;;;;;2607076;54;21331;-74
2022/10/12 21:07:39;;;;;;;22.93;18.17;;;8.30;99.90;;;;;;2610049;54;20146;-75
2022/10/12 21:13:31;;;;;;;25.50;17.17;;;8.40;99.90;;;;;;2610074;54;20133;-74
2022/10/12 21:19:19;;;;;;;25.90;15.50;;;8.30;99.90;;;;;;2609431;54;20580;-73
2022/10/12 21:25:07;;;;;;;23.57;15.83;;;8.10;99.90;;;;;;2609698;54;20210;-75
2022/10/12 21:30:57;;;;;;;20.30;15.03;;;8.10;99.90;;;;;;2608972;54;20410;-74
2022/10/12 21:36:44;;;;;;;20.80;15.83;;;7.90;99.90;;;;;;2609126;54;20532;-74
2022/10/12 21:42:32;;;;;;;23.00;16.40;;;7.90;99.90;;;;;;2608758;54;20161;-73
2022/10/12 21:48:20;;;;;;;23.93;17.63;;;8.00;99.90;;;;;;2609231;54;20173;-74
2022/10/12 21:54:08;;;;;;;23.50;15.70;;;8.00;99.90;;;;;;2610480;54;20499;-75
2022/10/12 21:59:56;;;;;;;20.10;16.13;;;8.10;99.90;;;;;;2610209;54;20286;-73
2022/10/12 22:05:44;;;;;;;19.00;14.97;;;8.00;99.90;;;;;;2611417;54;20151;-73
2022/10/12 22:11:34;;;;;;;27.30;16.70;;;8.00;99.90;;;;;;2610368;39;20530;-76
2022/10/12 22:17:22;;;;;;;25.37;17.23;;;8.00;99.90;;;;;;2609403;54;20469;-74
2022/10/12 22:23:09;;;;;;;21.30;15.77;;;8.00;99.90;;;;;;2609052;54;20415;-74
2022/10/12 22:28:59;;;;;;;24.07;15.97;;;8.10;99.90;;;;;;2607744;54;20130;-75
2022/10/12 22:34:47;;;;;;;23.30;16.47;;;8.30;99.90;;;;;;2607745;54;20391;-74
2022/10/12 22:40:34;;;;;;;26.07;15.40;;;8.60;99.90;;;;;;2609305;54;20230;-74
2022/10/12 22:50:43;;;;;;;23.30;15.27;;;9.00;99.90;;;;;;2611430;54;20414;-74
2022/10/12 22:56:32;;;;;;;25.60;17.00;;;9.20;99.90;;;;;;2611575;54;20435;-74
2022/10/12 23:02:19;;;;;;;23.40;16.63;;;9.60;99.90;;;;;;2611005;54;21038;-74
2022/10/12 23:08:08;;;;;;;31.47;17.53;;;9.80;99.90;;;;;;2611883;54;20154;-74
2022/10/12 23:13:57;;;;;;;31.03;17.47;;;10.20;99.90;;;;;;2611017;54;20403;-74
2022/10/12 23:19:44;;;;;;;25.80;17.60;;;10.10;99.90;;;;;;2612634;54;20419;-75
2022/10/12 23:25:32;;;;;;;23.43;17.67;;;10.10;99.90;;;;;;2611386;39;20577;-74
2022/10/12 23:31:22;;;;;;;24.57;17.70;;;10.30;99.90;;;;;;2611282;54;20158;-75
2022/10/12 23:37:10;;;;;;;24.90;15.87;;;10.40;99.90;;;;;;2611420;54;20446;-75
2022/10/12 23:42:57;;;;;;;24.23;15.90;;;10.50;99.90;;;;;;2610280;47;21308;-73
2022/10/12 23:46:11;;;;;;;25.67;16.30;;;10.60;99.90;;;;;;2608379;54;20424;-73
2022/10/12 23:48:37;;;;;;;18.10;14.90;;;10.60;99.90;;;;;;2608541;54;20212;-74
2022/10/12 23:54:24;;;;;;;21.60;15.07;;;10.70;99.90;;;;;;2609330;54;20134;-74
